createdAt,value
2023-02-18T00:01:30.144Z,9.01
2023-02-18T00:03:58.992Z,8.99
2023-02-18T00:06:28.681Z,9.02
2023-02-18T00:08:58.867Z,9.09
2023-02-18T00:11:28.395Z,9.31
2023-02-18T00:13:58.177Z,9.34
2023-02-18T00:16:27.474Z,9.44
2023-02-18T00:18:56.758Z,9.49
2023-02-18T00:21:24.815Z,9.57
2023-02-18T00:23:52.872Z,9.62
2023-02-18T00:26:22.913Z,9.64
2023-02-18T00:28:53.435Z,9.72
2023-02-18T00:31:23.088Z,9.94
2023-02-18T00:33:50.976Z,9.77
2023-02-18T00:36:20.900Z,9.68
2023-02-18T00:38:50.398Z,9.76
2023-02-18T00:41:18.736Z,9.78
2023-02-18T00:43:46.568Z,9.99
2023-02-18T00:46:16.398Z,9.83
2023-02-18T00:48:44.978Z,10.20
2023-02-18T00:51:13.630Z,10.10
2023-02-18T00:53:42.063Z,9.90
2023-02-18T00:56:10.313Z,9.79
2023-02-18T00:58:38.372Z,9.88
2023-02-18T01:01:07.865Z,9.85
2023-02-18T01:03:37.931Z,9.74
2023-02-18T01:06:06.486Z,9.72
2023-02-18T01:08:34.943Z,9.86
2023-02-18T01:11:03.141Z,10.01
2023-02-18T01:13:31.562Z,10.27
2023-02-18T01:15:59.867Z,10.34
2023-02-18T01:18:28.499Z,10.40
2023-02-18T01:20:57.922Z,10.35
2023-02-18T01:23:25.667Z,10.39
2023-02-18T01:25:53.675Z,10.35
2023-02-18T01:28:25.551Z,10.32
2023-02-18T01:30:54.165Z,10.30
2023-02-18T01:33:22.359Z,10.44
2023-02-18T01:35:50.226Z,10.49
2023-02-18T01:38:19.400Z,10.46
2023-02-18T01:40:51.696Z,10.64
2023-02-18T01:43:20.779Z,10.60
2023-02-18T01:45:58.905Z,10.54
2023-02-18T01:48:31.421Z,10.44
2023-02-18T01:51:04.207Z,10.49
2023-02-18T01:53:39.026Z,10.56
2023-02-18T01:56:13.450Z,10.61
2023-02-18T01:58:41.769Z,10.55
2023-02-18T02:01:11.233Z,10.54
2023-02-18T02:03:39.105Z,10.60
2023-02-18T02:06:16.878Z,10.58
2023-02-18T02:08:48.356Z,10.53
2023-02-18T02:11:30.064Z,10.57
2023-02-18T02:14:10.215Z,10.61
2023-02-18T02:16:45.946Z,10.58
2023-02-18T02:19:43.096Z,10.57
2023-02-18T02:22:30.702Z,10.59
2023-02-18T02:25:17.677Z,10.59
2023-02-18T02:28:08.709Z,10.55
2023-02-18T02:31:09.834Z,10.36
2023-02-18T02:33:54.462Z,10.46
2023-02-18T02:36:29.286Z,10.39
2023-02-18T02:39:04.744Z,10.33
2023-02-18T02:41:47.969Z,10.33
2023-02-18T02:44:22.574Z,10.30
2023-02-18T02:46:54.339Z,10.25
2023-02-18T02:49:35.092Z,10.24
2023-02-18T02:52:09.067Z,10.35
2023-02-18T02:54:37.009Z,10.47
2023-02-18T02:57:11.249Z,10.53
2023-02-18T02:59:42.594Z,10.47
2023-02-18T03:02:25.075Z,10.44
2023-02-18T03:05:08.704Z,10.53
2023-02-18T03:08:10.490Z,10.47
2023-02-18T03:10:47.697Z,10.46
2023-02-18T03:13:27.127Z,10.49
2023-02-18T03:15:59.030Z,10.11
2023-02-18T03:18:35.388Z,10.11
2023-02-18T03:21:08.739Z,9.96
2023-02-18T03:23:43.291Z,9.90
2023-02-18T03:26:12.743Z,9.65
2023-02-18T03:28:41.481Z,9.63
2023-02-18T03:31:13.246Z,9.70
2023-02-18T03:33:46.593Z,9.74
2023-02-18T03:36:14.804Z,9.74
2023-02-18T03:38:49.753Z,9.67
2023-02-18T03:41:17.927Z,9.64
2023-02-18T03:43:51.276Z,9.74
2023-02-18T03:46:19.223Z,9.62
2023-02-18T03:48:46.981Z,9.77
2023-02-18T03:51:14.735Z,9.79
2023-02-18T03:53:42.547Z,9.80
2023-02-18T03:56:11.696Z,9.81
2023-02-18T03:58:39.583Z,9.92
2023-02-18T04:01:08.050Z,9.87
2023-02-18T04:03:35.865Z,9.87
2023-02-18T04:06:03.614Z,9.85
2023-02-18T04:08:31.448Z,9.78
2023-02-18T04:10:59.367Z,9.79
2023-02-18T04:13:28.843Z,9.78
2023-02-18T04:15:56.640Z,9.77
2023-02-18T04:18:24.804Z,9.76
2023-02-18T04:20:53.168Z,9.76
2023-02-18T04:23:21.334Z,9.79
2023-02-18T04:25:49.484Z,9.95
2023-02-18T04:28:17.771Z,10.01
2023-02-18T04:30:48.390Z,10.04
2023-02-18T04:33:17.032Z,9.94
2023-02-18T04:35:45.144Z,9.89
2023-02-18T04:38:13.213Z,9.84
2023-02-18T04:40:40.936Z,9.72
2023-02-18T04:43:08.679Z,9.68
2023-02-18T04:45:36.677Z,9.57
2023-02-18T04:48:06.697Z,9.48
2023-02-18T04:50:36.530Z,9.54
2023-02-18T04:53:04.351Z,9.63
2023-02-18T04:55:32.166Z,9.53
2023-02-18T04:57:59.986Z,9.59
2023-02-18T05:00:29.185Z,9.49
2023-02-18T05:02:57.056Z,9.46
2023-02-18T05:05:26.354Z,9.47
2023-02-18T05:07:54.479Z,9.35
2023-02-18T05:10:22.362Z,9.30
2023-02-18T05:12:50.192Z,9.32
2023-02-18T05:15:18.017Z,9.46
2023-02-18T05:17:45.824Z,9.75
2023-02-18T05:20:14.621Z,9.60
2023-02-18T05:22:43.688Z,9.57
2023-02-18T05:25:11.826Z,9.46
2023-02-18T05:27:39.730Z,9.46
2023-02-18T05:30:08.774Z,9.67
2023-02-18T05:32:36.516Z,9.52
2023-02-18T05:35:04.418Z,9.62
2023-02-18T05:37:32.326Z,9.54
2023-02-18T05:40:01.484Z,9.47
2023-02-18T05:42:29.247Z,9.46
2023-02-18T05:44:56.963Z,9.41
2023-02-18T05:47:24.716Z,9.42
2023-02-18T05:49:52.557Z,9.28
2023-02-18T05:52:22.034Z,9.28
2023-02-18T05:54:49.776Z,9.30
2023-02-18T05:57:18.900Z,9.32
2023-02-18T05:59:46.708Z,9.37
2023-02-18T06:02:14.736Z,9.21
2023-02-18T06:04:42.713Z,9.53
2023-02-18T06:07:10.517Z,9.53
2023-02-18T06:09:38.251Z,9.62
2023-02-18T06:12:06.398Z,9.65
2023-02-18T06:14:35.505Z,9.62
2023-02-18T06:17:03.270Z,9.60
2023-02-18T06:19:30.990Z,9.53
2023-02-18T06:21:58.749Z,9.68
2023-02-18T06:24:26.529Z,9.51
2023-02-18T06:26:54.276Z,9.32
2023-02-18T06:29:22.090Z,9.42
2023-02-18T06:31:51.370Z,9.42
2023-02-18T06:34:19.223Z,9.35
2023-02-18T06:36:46.974Z,9.37
2023-02-18T06:39:14.776Z,9.37
2023-02-18T06:41:42.777Z,9.39
2023-02-18T06:44:11.600Z,9.41
2023-02-18T06:46:39.423Z,9.40
2023-02-18T06:49:08.854Z,9.45
2023-02-18T06:51:37.033Z,9.51
2023-02-18T06:54:06.006Z,9.53
2023-02-18T06:56:34.024Z,9.57
2023-02-18T06:59:01.714Z,9.77
2023-02-18T07:01:29.449Z,9.85
2023-02-18T07:03:57.640Z,9.99
2023-02-18T07:06:27.112Z,10.05
2023-02-18T07:08:54.902Z,10.17
2023-02-18T07:11:22.704Z,10.29
2023-02-18T07:13:50.569Z,10.45
2023-02-18T07:16:18.375Z,10.61
2023-02-18T07:18:47.408Z,10.69
2023-02-18T07:21:15.137Z,10.86
2023-02-18T07:23:44.429Z,10.88
2023-02-18T07:26:14.768Z,10.96
2023-02-18T07:28:42.875Z,10.91
2023-02-18T07:31:10.747Z,11.16
2023-02-18T07:33:38.614Z,11.57
2023-02-18T07:36:07.626Z,11.73
2023-02-18T07:38:35.525Z,11.70
2023-02-18T07:41:04.981Z,11.95
2023-02-18T07:43:32.757Z,11.88
2023-02-18T07:46:00.646Z,12.11
2023-02-18T07:48:28.440Z,12.07
2023-02-18T07:50:56.197Z,12.23
2023-02-18T07:53:23.954Z,12.39
2023-02-18T07:55:51.779Z,12.15
2023-02-18T07:58:25.411Z,12.24
2023-02-18T08:00:54.308Z,12.54
2023-02-18T08:03:23.648Z,12.61
2023-02-18T08:05:52.184Z,12.83
2023-02-18T08:08:22.721Z,12.91
2023-02-18T08:10:51.743Z,13.30
2023-02-18T08:13:20.999Z,13.52
2023-02-18T08:15:48.933Z,13.80
2023-02-18T08:18:18.637Z,13.72
2023-02-18T08:20:47.168Z,13.50
2023-02-18T08:23:15.711Z,13.37
2023-02-18T08:25:49.804Z,13.82
2023-02-18T08:28:18.129Z,13.63
2023-02-18T08:30:48.344Z,13.62
2023-02-18T08:33:16.815Z,13.70
2023-02-18T08:35:45.716Z,13.71
2023-02-18T08:38:13.825Z,14.03
2023-02-18T08:40:42.486Z,13.73
2023-02-18T08:43:11.363Z,13.88
2023-02-18T08:45:39.927Z,13.67
2023-02-18T08:48:18.538Z,13.30
2023-02-18T08:50:48.290Z,13.52
2023-02-18T08:53:16.142Z,13.71
2023-02-18T08:55:44.271Z,13.95
2023-02-18T08:58:12.551Z,14.53
2023-02-18T09:00:41.651Z,14.45
2023-02-18T09:03:13.154Z,14.19
2023-02-18T09:05:41.593Z,14.32
2023-02-18T09:08:10.175Z,13.84
2023-02-18T09:10:39.625Z,14.08
2023-02-18T09:13:07.498Z,14.62
2023-02-18T09:15:35.356Z,15.19
2023-02-18T09:18:03.179Z,16.07
2023-02-18T09:20:32.307Z,16.69
2023-02-18T09:23:00.812Z,16.78
2023-02-18T09:25:28.754Z,16.55
2023-02-18T09:27:56.742Z,16.18
2023-02-18T09:30:24.566Z,15.74
2023-02-18T09:32:52.394Z,15.86
2023-02-18T09:35:20.468Z,15.46
2023-02-18T09:37:49.602Z,16.23
2023-02-18T09:40:27.015Z,15.09
2023-02-18T09:42:57.473Z,15.21
2023-02-18T09:45:25.675Z,14.93
2023-02-18T09:47:54.581Z,15.33
2023-02-18T09:50:24.711Z,15.17
2023-02-18T09:52:54.672Z,14.74
2023-02-18T09:55:29.141Z,15.24
2023-02-18T09:58:00.869Z,14.90
2023-02-18T10:00:34.551Z,15.05
2023-02-18T10:03:07.213Z,15.07
2023-02-18T10:05:38.041Z,15.05
2023-02-18T10:08:13.582Z,14.98
2023-02-18T10:10:44.200Z,15.19
2023-02-18T10:13:15.314Z,15.77
2023-02-18T10:15:44.122Z,16.59
2023-02-18T10:18:23.289Z,16.00
2023-02-18T10:20:53.251Z,15.55
2023-02-18T10:23:24.261Z,15.64
2023-02-18T10:25:52.994Z,15.98
2023-02-18T10:28:26.254Z,15.96
2023-02-18T10:30:59.369Z,15.38
2023-02-18T10:33:36.529Z,14.72
2023-02-18T10:36:18.993Z,15.43
2023-02-18T10:39:03.821Z,15.57
2023-02-18T10:41:39.507Z,15.33
2023-02-18T10:44:13.872Z,15.42
2023-02-18T10:46:50.135Z,15.25
2023-02-18T10:49:34.737Z,14.93
2023-02-18T10:52:06.300Z,14.77
2023-02-18T10:57:34.274Z,14.67
2023-02-18T11:00:11.798Z,14.30
2023-02-18T11:02:40.764Z,14.51
2023-02-18T11:05:21.094Z,14.03
2023-02-18T11:07:51.611Z,14.36
2023-02-18T11:10:23.942Z,14.31
2023-02-18T11:12:57.520Z,14.46
2023-02-18T11:15:27.483Z,15.02
2023-02-18T11:17:57.843Z,15.22
2023-02-18T11:20:32.212Z,15.31
2023-02-18T11:23:16.694Z,15.84
2023-02-18T11:25:56.854Z,16.36
2023-02-18T11:28:33.970Z,16.69
2023-02-18T11:31:05.225Z,17.20
2023-02-18T11:33:36.651Z,17.59
2023-02-18T11:36:13.333Z,17.17
2023-02-18T11:38:46.501Z,17.06
2023-02-18T11:41:17.628Z,17.26
2023-02-18T11:43:50.927Z,16.93
2023-02-18T11:46:20.719Z,16.99
2023-02-18T11:48:48.794Z,17.10
2023-02-18T11:51:24.333Z,16.49
2023-02-18T11:53:59.813Z,16.62
2023-02-18T11:56:30.186Z,16.21
2023-02-18T11:59:00.484Z,16.40
2023-02-18T12:01:44.822Z,17.21
2023-02-18T12:04:15.393Z,17.08
2023-02-18T12:06:55.482Z,17.43
2023-02-18T12:09:29.817Z,17.01
2023-02-18T12:12:02.631Z,18.15
2023-02-18T12:14:33.405Z,17.88
2023-02-18T12:17:18.638Z,17.18
2023-02-18T12:20:01.882Z,17.80
2023-02-18T12:22:42.525Z,18.20
2023-02-18T12:25:26.947Z,18.70
2023-02-18T12:28:12.937Z,18.71
2023-02-18T12:31:10.969Z,18.58
2023-02-18T12:33:50.029Z,20.28
2023-02-18T12:36:31.552Z,20.75
2023-02-18T12:39:11.749Z,20.96
2023-02-18T12:42:00.058Z,20.72
2023-02-18T12:44:36.481Z,19.86
2023-02-18T12:47:24.295Z,19.23
2023-02-18T12:50:15.880Z,19.01
2023-02-18T12:52:58.820Z,19.12
2023-02-18T12:55:57.904Z,19.34
2023-02-18T12:58:40.160Z,19.35
2023-02-18T13:01:23.968Z,19.94
2023-02-18T13:04:26.025Z,19.68
2023-02-18T13:07:31.458Z,19.30
2023-02-18T13:10:19.771Z,19.52
2023-02-18T13:12:54.999Z,18.48
2023-02-18T13:15:26.245Z,17.15
2023-02-18T13:17:59.537Z,16.72
2023-02-18T13:20:34.531Z,16.71
2023-02-18T13:23:04.082Z,16.91
2023-02-18T13:25:38.783Z,16.60
2023-02-18T13:28:13.712Z,16.57
2023-02-18T13:30:49.097Z,16.81
2023-02-18T13:33:25.144Z,16.50
2023-02-18T13:36:01.507Z,16.53
2023-02-18T13:38:59.582Z,16.23
2023-02-18T13:41:28.531Z,16.29
2023-02-18T13:43:56.312Z,16.12
2023-02-18T13:46:24.790Z,16.37
2023-02-18T13:48:54.901Z,16.23
2023-02-18T13:51:32.791Z,16.12
2023-02-18T13:54:05.783Z,16.25
2023-02-18T13:56:36.372Z,16.10
2023-02-18T13:59:11.233Z,16.41
2023-02-18T14:01:42.786Z,16.49
2023-02-18T14:04:36.251Z,16.57
2023-02-18T14:07:29.962Z,16.57
2023-02-18T14:09:58.832Z,16.43
2023-02-18T14:12:38.074Z,16.53
2023-02-18T14:15:41.779Z,16.56
2023-02-18T14:18:24.152Z,16.68
2023-02-18T14:20:52.587Z,16.42
2023-02-18T14:23:55.883Z,16.31
2023-02-18T14:26:29.316Z,16.18
2023-02-18T14:29:01.610Z,16.22
2023-02-18T14:31:45.298Z,15.75
2023-02-18T14:34:35.408Z,16.07
2023-02-18T14:37:17.406Z,16.08
2023-02-18T14:39:58.605Z,15.82
2023-02-18T14:42:40.068Z,16.08
2023-02-18T14:45:21.972Z,16.06
2023-02-18T14:48:07.818Z,15.92
2023-02-18T14:50:39.680Z,15.94
2023-02-18T14:53:13.316Z,15.91
2023-02-18T14:55:47.086Z,15.83
2023-02-18T14:58:27.571Z,15.86
2023-02-18T15:00:55.365Z,15.92
2023-02-18T15:03:23.778Z,15.76
2023-02-18T15:05:52.504Z,15.85
2023-02-18T15:08:22.343Z,15.83
2023-02-18T15:11:00.338Z,15.80
2023-02-18T15:13:30.738Z,15.82
2023-02-18T15:16:01.337Z,15.86
2023-02-18T15:18:34.663Z,15.69
2023-02-18T15:21:03.777Z,15.68
2023-02-18T15:23:32.735Z,15.67
2023-02-18T15:26:01.978Z,15.67
2023-02-18T15:28:32.310Z,15.67
2023-02-18T15:31:00.786Z,15.68
2023-02-18T15:33:29.203Z,15.70
2023-02-18T15:36:03.110Z,15.57
2023-02-18T15:38:31.234Z,15.52
2023-02-18T15:41:02.065Z,15.57
2023-02-18T15:43:31.073Z,15.49
2023-02-18T15:45:59.908Z,15.37
2023-02-18T15:48:33.638Z,15.30
2023-02-18T15:51:16.393Z,15.29
2023-02-18T15:53:49.163Z,15.30
2023-02-18T15:56:25.053Z,15.08
2023-02-18T15:58:58.171Z,14.87
2023-02-18T16:01:29.198Z,14.88
2023-02-18T16:03:57.547Z,14.85
2023-02-18T16:06:27.186Z,14.70
2023-02-18T16:09:00.840Z,14.50
2023-02-18T16:11:33.166Z,14.41
2023-02-18T16:14:01.313Z,14.38
2023-02-18T16:16:32.220Z,14.21
2023-02-18T16:19:00.605Z,14.16
2023-02-18T16:21:34.422Z,14.17
2023-02-18T16:24:04.143Z,14.01
2023-02-18T16:26:42.017Z,13.82
2023-02-18T16:29:14.491Z,13.74
2023-02-18T16:31:42.600Z,13.64
2023-02-18T16:34:10.508Z,13.55
2023-02-18T16:36:58.322Z,13.46
2023-02-18T16:39:26.312Z,13.36
2023-02-18T16:41:55.464Z,13.30
2023-02-18T16:44:23.206Z,13.23
2023-02-18T16:46:53.005Z,13.06
2023-02-18T16:49:21.349Z,12.96
2023-02-18T16:51:50.206Z,12.89
2023-02-18T16:54:18.416Z,12.63
2023-02-18T16:56:46.377Z,12.36
2023-02-18T16:59:15.549Z,12.18
2023-02-18T17:01:46.268Z,12.00
2023-02-18T17:04:16.938Z,11.93
2023-02-18T17:06:46.134Z,12.06
2023-02-18T17:09:16.978Z,11.89
2023-02-18T17:11:46.037Z,11.78
2023-02-18T17:14:17.999Z,11.69
2023-02-18T17:16:46.201Z,11.98
2023-02-18T17:19:14.204Z,11.92
2023-02-18T17:21:42.392Z,11.57
2023-02-18T17:24:13.112Z,11.53
2023-02-18T17:26:41.261Z,11.49
2023-02-18T17:29:09.355Z,11.31
2023-02-18T17:31:41.478Z,11.38
2023-02-18T17:34:15.699Z,11.11
2023-02-18T17:36:45.451Z,11.13
2023-02-18T17:39:15.133Z,10.94
2023-02-18T17:41:43.337Z,10.85
2023-02-18T17:44:16.058Z,10.79
2023-02-18T17:46:45.406Z,10.58
2023-02-18T17:49:13.924Z,10.46
2023-02-18T17:51:41.797Z,10.36
2023-02-18T17:54:13.848Z,10.56
2023-02-18T17:56:41.681Z,10.42
2023-02-18T17:59:09.617Z,10.27
2023-02-18T18:01:37.525Z,10.14
2023-02-18T18:04:08.034Z,10.12
2023-02-18T18:06:36.411Z,9.95
2023-02-18T18:09:06.048Z,9.79
2023-02-18T18:11:34.407Z,9.77
2023-02-18T18:14:02.181Z,9.48
2023-02-18T18:16:30.125Z,9.66
2023-02-18T18:18:57.877Z,9.61
2023-02-18T18:21:32.305Z,9.73
2023-02-18T18:24:00.302Z,9.68
2023-02-18T18:26:29.094Z,9.62
2023-02-18T18:28:56.930Z,9.62
2023-02-18T18:31:24.936Z,9.47
2023-02-18T18:33:53.852Z,9.45
2023-02-18T18:36:24.181Z,9.62
2023-02-18T18:38:53.680Z,9.55
2023-02-18T18:41:23.353Z,9.62
2023-02-18T18:43:51.347Z,9.59
2023-02-18T18:46:19.472Z,9.65
2023-02-18T18:48:47.264Z,9.84
2023-02-18T18:51:17.082Z,9.78
2023-02-18T18:53:47.358Z,9.84
2023-02-18T18:56:16.448Z,9.85
2023-02-18T18:58:44.219Z,9.82
2023-02-18T19:01:17.445Z,9.67
2023-02-18T19:03:45.832Z,9.60
2023-02-18T19:06:14.819Z,9.63
2023-02-18T19:08:42.751Z,9.50
2023-02-18T19:11:12.115Z,9.48
2023-02-18T19:13:42.192Z,9.41
2023-02-18T19:16:17.399Z,9.35
2023-02-18T19:18:45.421Z,9.32
2023-02-18T19:21:13.348Z,9.23
2023-02-18T19:23:41.658Z,9.32
2023-02-18T19:26:10.026Z,9.23
2023-02-18T19:28:37.969Z,9.12
2023-02-18T19:31:11.329Z,9.20
2023-02-18T19:33:40.131Z,9.40
2023-02-18T19:36:09.741Z,9.36
2023-02-18T19:38:37.629Z,9.28
2023-02-18T19:41:10.177Z,9.25
2023-02-18T19:43:38.213Z,9.22
2023-02-18T19:46:10.999Z,9.20
2023-02-18T19:48:39.261Z,9.10
2023-02-18T19:51:08.159Z,9.12
2023-02-18T19:53:36.521Z,9.12
2023-02-18T19:56:06.385Z,9.18
2023-02-18T19:58:34.339Z,9.06
2023-02-18T20:01:02.098Z,9.16
2023-02-18T20:03:31.209Z,9.02
2023-02-18T20:05:58.979Z,9.05
2023-02-18T20:08:26.845Z,8.99
2023-02-18T20:10:58.430Z,8.92
2023-02-18T20:13:26.378Z,8.86
2023-02-18T20:15:54.178Z,9.03
2023-02-18T20:18:21.981Z,8.92
2023-02-18T20:20:51.907Z,8.68
2023-02-18T20:23:19.869Z,8.77
2023-02-18T20:25:47.849Z,8.67
2023-02-18T20:28:16.225Z,8.67
2023-02-18T20:30:44.570Z,8.49
2023-02-18T20:33:12.414Z,8.60
2023-02-18T20:35:40.272Z,8.56
2023-02-18T20:38:09.388Z,8.51
2023-02-18T20:40:37.245Z,8.52
2023-02-18T20:43:05.019Z,8.46
2023-02-18T20:45:33.516Z,8.39
2023-02-18T20:48:01.338Z,8.38
2023-02-18T20:50:29.162Z,8.46
2023-02-18T20:52:56.908Z,8.36
2023-02-18T20:55:26.038Z,8.49
2023-02-18T20:57:53.818Z,8.46
2023-02-18T21:00:22.516Z,8.40
2023-02-18T21:02:50.440Z,8.47
2023-02-18T21:05:19.632Z,8.40
2023-02-18T21:07:47.431Z,8.42
2023-02-18T21:10:15.216Z,8.43
2023-02-18T21:12:45.068Z,8.32
2023-02-18T21:15:12.819Z,8.43
2023-02-18T21:17:40.576Z,8.33
2023-02-18T21:20:09.349Z,8.37
2023-02-18T21:22:37.205Z,8.40
2023-02-18T21:25:05.363Z,8.38
2023-02-18T21:27:33.060Z,8.32
2023-02-18T21:30:04.188Z,8.36
2023-02-18T21:32:32.073Z,8.35
2023-02-18T21:34:59.849Z,8.41
2023-02-18T21:37:27.678Z,8.03
2023-02-18T21:39:55.436Z,8.25
2023-02-18T21:42:23.669Z,8.21
2023-02-18T21:44:51.480Z,8.64
2023-02-18T21:47:20.760Z,8.53
2023-02-18T21:49:48.812Z,8.47
2023-02-18T21:52:16.596Z,8.34
2023-02-18T21:54:47.042Z,8.30
2023-02-18T21:57:16.746Z,8.28
2023-02-18T21:59:45.396Z,8.25
2023-02-18T22:02:17.673Z,8.32
2023-02-18T22:04:47.092Z,8.32
2023-02-18T22:07:15.798Z,8.58
2023-02-18T22:09:43.751Z,8.40
2023-02-18T22:12:11.815Z,8.38
2023-02-18T22:14:39.993Z,8.26
2023-02-18T22:17:07.953Z,8.19
2023-02-18T22:19:35.906Z,8.24
2023-02-18T22:22:05.115Z,8.42
2023-02-18T22:24:33.567Z,8.39
2023-02-18T22:27:02.127Z,8.30
2023-02-18T22:29:31.701Z,8.35
2023-02-18T22:31:59.581Z,8.46
2023-02-18T22:34:27.776Z,8.38
2023-02-18T22:36:55.560Z,8.38
2023-02-18T22:39:26.356Z,8.45
2023-02-18T22:41:54.098Z,8.36
2023-02-18T22:44:23.075Z,8.41
2023-02-18T22:46:51.201Z,8.58
2023-02-18T22:49:19.001Z,8.43
2023-02-18T22:51:46.777Z,8.51
2023-02-18T22:54:16.395Z,8.49
2023-02-18T22:56:46.488Z,8.40
2023-02-18T22:59:16.238Z,8.25
2023-02-18T23:01:49.202Z,8.39
2023-02-18T23:04:18.831Z,8.23
2023-02-18T23:06:48.509Z,8.53
2023-02-18T23:09:18.550Z,8.61
2023-02-18T23:11:50.948Z,8.39
2023-02-18T23:14:21.723Z,8.40
2023-02-18T23:17:08.985Z,8.63
2023-02-18T23:19:37.551Z,8.52
2023-02-18T23:22:05.649Z,8.54
2023-02-18T23:24:34.385Z,8.39
2023-02-18T23:27:04.310Z,8.17
2023-02-18T23:29:33.624Z,8.35
2023-02-18T23:32:02.178Z,8.16
2023-02-18T23:34:30.264Z,8.57
2023-02-18T23:36:58.292Z,8.33
2023-02-18T23:39:26.690Z,8.30
2023-02-18T23:41:54.467Z,8.20
2023-02-18T23:44:25.000Z,8.13
2023-02-18T23:46:53.367Z,8.07
2023-02-18T23:49:23.210Z,8.03
2023-02-18T23:51:55.357Z,8.11
2023-02-18T23:54:23.184Z,8.11
2023-02-18T23:56:50.911Z,7.96
2023-02-18T23:59:18.944Z,7.91
